Time;durP1;ratioP1;P1;durP2;ratioP2;P2;SDS_P1;SDS_P2;PMS_P1;PMS_P2;Temp;Humidity;BMP_temperature;BMP_pressure;BME280_temperature;BME280_humidity;BME280_pressure;Samples;Min_cycle;Max_cycle;Signal;HPM_P1;HPM_P2
2022/01/30 00:00:26;;;;;;;9.40;1.50;;;8.00;1.00;;;;;;5125224;27;20799;-57
2022/01/30 00:02:52;;;;;;;4.10;1.40;;;7.80;1.00;;;;;;5130455;27;20569;-57
2022/01/30 00:05:18;;;;;;;5.40;1.53;;;7.70;1.00;;;;;;5130954;27;20203;-57
2022/01/30 00:07:44;;;;;;;8.13;1.70;;;7.60;1.00;;;;;;5112821;27;20205;-55
2022/01/30 00:10:12;;;;;;;6.40;1.77;;;7.50;1.00;;;;;;5128524;27;20474;-57
2022/01/30 00:12:48;;;;;;;3.87;1.33;;;7.40;1.00;;;;;;5131542;27;20432;-57
2022/01/30 00:15:15;;;;;;;2.57;0.90;;;7.30;1.00;;;;;;5111475;27;20447;-57
2022/01/30 00:17:48;;;;;;;2.70;1.50;;;7.30;1.00;;;;;;5127464;27;20446;-57
2022/01/30 00:20:21;;;;;;;14.53;2.07;;;7.20;1.00;;;;;;5125889;27;20425;-57
2022/01/30 00:23:09;;;;;;;4.67;1.40;;;7.30;1.00;;;;;;5129617;27;20442;-57
2022/01/30 00:25:46;;;;;;;7.13;1.30;;;7.20;1.00;;;;;;5126413;27;20472;-57
2022/01/30 00:28:14;;;;;;;6.73;2.00;;;7.20;1.00;;;;;;5128478;27;20454;-56
2022/01/30 00:30:39;;;;;;;4.80;1.20;;;7.10;1.00;;;;;;5129528;27;20430;-57
2022/01/30 00:33:05;;;;;;;11.63;1.97;;;7.10;1.00;;;;;;5128596;27;20822;-56
2022/01/30 00:35:35;;;;;;;6.07;1.53;;;7.10;1.00;;;;;;5130734;27;20610;-56
2022/01/30 00:38:02;;;;;;;5.30;1.27;;;7.20;1.00;;;;;;5128034;27;20230;-56
2022/01/30 00:40:27;;;;;;;6.73;1.30;;;7.20;1.00;;;;;;5124244;27;20422;-56
2022/01/30 00:42:53;;;;;;;6.63;1.40;;;7.20;1.00;;;;;;5121208;27;20458;-57
2022/01/30 00:45:18;;;;;;;6.23;1.47;;;7.30;1.00;;;;;;5130740;27;20226;-57
2022/01/30 00:47:44;;;;;;;5.10;1.27;;;7.20;1.00;;;;;;5130415;27;20212;-57
2022/01/30 00:50:10;;;;;;;6.77;1.97;;;7.20;1.00;;;;;;5128320;27;20234;-57
2022/01/30 00:52:35;;;;;;;5.70;1.70;;;7.20;1.00;;;;;;5130272;27;20600;-56
2022/01/30 00:55:01;;;;;;;7.00;1.60;;;7.20;1.00;;;;;;5108669;27;20212;-56
2022/01/30 00:57:27;;;;;;;10.97;2.50;;;7.20;1.00;;;;;;5129929;27;20174;-56
2022/01/30 00:59:52;;;;;;;7.17;1.60;;;7.20;1.00;;;;;;5126974;27;20200;-55
2022/01/30 01:02:18;;;;;;;7.80;2.20;;;7.20;1.00;;;;;;5128650;27;20188;-57
2022/01/30 01:04:44;;;;;;;8.30;2.70;;;7.20;1.00;;;;;;5129192;27;20200;-57
2022/01/30 01:07:17;;;;;;;6.13;2.10;;;7.20;1.00;;;;;;5129599;27;20704;-55
2022/01/30 01:09:50;;;;;;;4.87;2.07;;;7.20;1.00;;;;;;5126735;27;20525;-56
2022/01/30 01:25:47;;;;;;;7.07;2.20;;;7.20;1.00;;;;;;5129392;27;20563;-56
2022/01/30 01:28:13;;;;;;;4.30;1.60;;;7.20;1.00;;;;;;5131284;27;20466;-56
2022/01/30 01:30:38;;;;;;;9.77;1.83;;;7.20;1.00;;;;;;5132290;27;20283;-55
2022/01/30 01:33:04;;;;;;;11.63;2.30;;;7.20;1.00;;;;;;5121289;27;20673;-56
2022/01/30 01:35:30;;;;;;;7.47;1.70;;;7.20;1.00;;;;;;5128070;27;20181;-57
2022/01/30 01:37:56;;;;;;;7.50;2.30;;;7.20;1.00;;;;;;5131004;27;20446;-56
2022/01/30 01:40:22;;;;;;;10.40;2.77;;;7.10;1.00;;;;;;5133071;27;20250;-56
2022/01/30 01:42:48;;;;;;;3.13;1.07;;;7.10;1.00;;;;;;5129224;27;20577;-55
2022/01/30 01:45:21;;;;;;;6.70;1.80;;;7.20;1.00;;;;;;5130629;27;21057;-55
2022/01/30 01:47:47;;;;;;;6.10;1.63;;;7.30;1.00;;;;;;5114870;27;20209;-56
2022/01/30 01:50:27;;;;;;;8.80;2.13;;;7.30;1.00;;;;;;5131924;27;20442;-56
2022/01/30 01:52:53;;;;;;;5.67;1.30;;;7.50;1.00;;;;;;5132648;27;20409;-55
2022/01/30 01:55:19;;;;;;;4.83;1.77;;;7.50;1.00;;;;;;5133363;27;20413;-55
2022/01/30 01:57:44;;;;;;;7.00;2.40;;;7.50;1.00;;;;;;5132930;27;20495;-56
2022/01/30 02:00:10;;;;;;;10.03;2.30;;;7.50;1.00;;;;;;5133659;27;20185;-55
2022/01/30 02:02:36;;;;;;;4.90;1.50;;;7.30;1.00;;;;;;5129019;27;20529;-56
2022/01/30 02:05:03;;;;;;;6.53;1.80;;;7.30;1.00;;;;;;5131979;27;20434;-55
2022/01/30 02:08:06;;;;;;;4.37;1.40;;;7.20;1.00;;;;;;5132400;27;20200;-56
2022/01/30 02:26:50;;;;;;;4.53;1.30;;;7.20;1.00;;;;;;5130171;27;20973;-55
2022/01/30 02:29:18;;;;;;;3.50;1.13;;;7.20;1.00;;;;;;5131201;27;20443;-56
2022/01/30 02:31:43;;;;;;;5.23;1.80;;;7.30;1.00;;;;;;5132508;27;20657;-56
2022/01/30 02:34:09;;;;;;;2.73;0.80;;;7.30;1.00;;;;;;5132222;27;20410;-56
2022/01/30 02:36:50;;;;;;;6.10;1.63;;;7.30;1.00;;;;;;5129139;27;20264;-56
2022/01/30 02:39:16;;;;;;;5.30;2.50;;;7.30;1.00;;;;;;5129882;27;20681;-56
2022/01/30 02:41:42;;;;;;;9.60;1.70;;;7.30;1.00;;;;;;5129703;27;20434;-56
2022/01/30 02:44:22;;;;;;;7.17;1.50;;;7.40;1.00;;;;;;5128631;27;20546;-56
2022/01/30 02:46:51;;;;;;;4.80;1.73;;;;;;;;;;5127656;27;20240;-56
2022/01/30 02:51:55;;;;;;;6.07;1.70;;;7.30;1.00;;;;;;5130917;27;20435;-56
2022/01/30 02:54:22;;;;;;;6.37;1.80;;;7.30;1.00;;;;;;5127589;27;20719;-57
2022/01/30 02:56:48;;;;;;;9.13;1.60;;;7.20;1.00;;;;;;5131434;27;20454;-57
2022/01/30 02:59:14;;;;;;;7.93;1.83;;;7.30;1.00;;;;;;5132296;27;20506;-56
2022/01/30 03:01:40;;;;;;;4.43;1.27;;;7.20;1.00;;;;;;5128759;27;20457;-57
2022/01/30 03:04:07;;;;;;;8.63;1.90;;;7.20;1.00;;;;;;5130638;27;20454;-56
2022/01/30 03:06:33;;;;;;;6.60;1.50;;;7.20;1.00;;;;;;5109161;27;20186;-57
2022/01/30 03:08:58;;;;;;;6.33;2.03;;;7.20;1.00;;;;;;5127099;27;20453;-56
2022/01/30 03:11:24;;;;;;;6.13;1.40;;;7.10;1.00;;;;;;5128734;27;20198;-56
2022/01/30 03:13:50;;;;;;;11.57;1.70;;;7.00;1.00;;;;;;5128745;27;20277;-56
2022/01/30 03:16:16;;;;;;;10.17;1.70;;;7.00;1.00;;;;;;5130996;27;20522;-57
2022/01/30 03:18:43;;;;;;;3.17;1.40;;;7.10;1.00;;;;;;5130533;27;20189;-57
2022/01/30 03:21:08;;;;;;;11.53;2.40;;;7.00;1.00;;;;;;5127790;27;20193;-57
2022/01/30 03:23:38;;;;;;;8.80;1.73;;;7.00;1.00;;;;;;5128811;27;20428;-55
2022/01/30 03:26:05;;;;;;;8.27;2.67;;;6.90;1.00;;;;;;5130100;27;20417;-56
2022/01/30 03:28:32;;;;;;;11.40;2.60;;;6.90;1.00;;;;;;5129973;27;20981;-56
2022/01/30 03:31:02;;;;;;;8.27;2.17;;;6.90;1.00;;;;;;5130392;27;20408;-56
2022/01/30 03:33:28;;;;;;;4.40;1.73;;;6.80;1.00;;;;;;5129834;27;20417;-56
2022/01/30 03:35:54;;;;;;;7.03;2.00;;;6.80;1.00;;;;;;5110005;27;20504;-55
2022/01/30 03:38:20;;;;;;;12.07;2.13;;;6.90;1.00;;;;;;5127390;27;20188;-57
2022/01/30 03:40:47;;;;;;;9.97;2.10;;;6.90;1.00;;;;;;5128976;27;20490;-57
2022/01/30 03:43:13;;;;;;;9.93;2.20;;;;;;;;;;5129200;27;20442;-56
2022/01/30 03:45:39;;;;;;;7.90;1.87;;;6.90;1.00;;;;;;5128568;27;20502;-56
2022/01/30 03:48:05;;;;;;;4.70;1.40;;;6.90;1.00;;;;;;5131241;27;20555;-55
2022/01/30 03:50:31;;;;;;;5.00;2.10;;;7.00;1.00;;;;;;5127512;27;20427;-56
2022/01/30 03:52:57;;;;;;;4.20;1.90;;;6.90;1.00;;;;;;5128083;27;20529;-56
2022/01/30 03:55:23;;;;;;;7.70;1.83;;;6.90;1.00;;;;;;5131576;27;20555;-56
2022/01/30 03:57:49;;;;;;;9.20;1.60;;;6.90;1.00;;;;;;5131414;27;20181;-57
2022/01/30 04:00:15;;;;;;;8.10;1.53;;;6.80;1.00;;;;;;5131967;27;20436;-56
2022/01/30 04:02:40;;;;;;;7.90;1.80;;;6.90;1.00;;;;;;5129177;27;20210;-56
2022/01/30 04:05:06;;;;;;;9.40;2.40;;;6.90;1.00;;;;;;5130002;27;20193;-54
2022/01/30 04:07:32;;;;;;;6.23;1.73;;;6.80;1.00;;;;;;5128737;27;20205;-57
2022/01/30 04:09:58;;;;;;;4.07;1.67;;;6.80;1.00;;;;;;5109776;27;20446;-54
2022/01/30 04:12:25;;;;;;;6.17;1.73;;;6.80;1.00;;;;;;5128428;27;20246;-56
2022/01/30 04:14:51;;;;;;;4.60;1.60;;;6.80;1.00;;;;;;5127880;27;20470;-57
2022/01/30 04:17:19;;;;;;;7.47;2.00;;;6.80;1.00;;;;;;5126895;27;20450;-56
2022/01/30 04:19:45;;;;;;;8.80;2.20;;;6.80;1.00;;;;;;5109947;27;20487;-57
2022/01/30 04:22:10;;;;;;;4.13;1.50;;;6.90;1.00;;;;;;5129780;27;20861;-57
2022/01/30 04:24:36;;;;;;;9.53;2.90;;;7.00;1.00;;;;;;5126667;27;20190;-56
2022/01/30 04:27:02;;;;;;;6.17;1.70;;;;;;;;;;5127523;27;20215;-57
2022/01/30 04:29:28;;;;;;;8.20;2.10;;;;;;;;;;5125845;27;20268;-55
2022/01/30 04:31:54;;;;;;;10.47;2.30;;;6.80;1.00;;;;;;5127956;27;20978;-56
2022/01/30 04:34:20;;;;;;;7.93;1.73;;;6.90;1.00;;;;;;5127519;27;20410;-57
2022/01/30 04:37:03;;;;;;;12.80;2.70;;;6.90;1.00;;;;;;5126204;27;20519;-56
2022/01/30 04:51:56;;;;;;;4.83;1.80;;;6.80;1.00;;;;;;5119482;27;20918;-56
2022/01/30 04:53:23;;;;;;;4.90;1.97;;;6.70;1.00;;;;;;5123595;27;20879;-57
2022/01/30 04:58:51;;;;;;;8.03;1.77;;;6.70;1.00;;;;;;5129088;27;20565;-56
2022/01/30 05:01:33;;;;;;;4.77;1.40;;;6.80;1.00;;;;;;5122582;27;20975;-56
2022/01/30 05:04:17;;;;;;;4.73;1.60;;;6.80;1.00;;;;;;5126193;27;20457;-56
2022/01/30 05:09:27;;;;;;;4.53;1.40;;;;;;;;;;5124784;27;20450;-56
2022/01/30 05:11:54;;;;;;;9.00;1.80;;;6.80;1.00;;;;;;5125594;27;20881;-56
2022/01/30 05:14:22;;;;;;;4.43;1.20;;;6.80;1.00;;;;;;5125288;27;20464;-56
2022/01/30 05:16:48;;;;;;;7.33;1.73;;;6.80;1.00;;;;;;5125619;27;20465;-56
2022/01/30 05:19:14;;;;;;;5.83;1.33;;;6.80;1.00;;;;;;5122047;27;20446;-56
2022/01/30 05:21:40;;;;;;;3.27;1.43;;;6.80;1.00;;;;;;5121566;27;20181;-56
2022/01/30 05:24:07;;;;;;;6.20;2.20;;;;;;;;;;5126934;27;20439;-55
2022/01/30 05:26:33;;;;;;;4.67;2.23;;;6.80;1.00;;;;;;5127233;27;20450;-56
2022/01/30 05:28:58;;;;;;;4.57;1.73;;;6.80;1.00;;;;;;5126741;27;20418;-56
2022/01/30 05:31:24;;;;;;;5.43;1.30;;;6.90;1.00;;;;;;5124490;28;20413;-57
2022/01/30 05:33:50;;;;;;;6.43;2.07;;;6.80;1.00;;;;;;5123905;27;20513;-56
2022/01/30 05:36:16;;;;;;;9.90;2.20;;;;;;;;;;5117623;28;20212;-56
2022/01/30 05:38:42;;;;;;;4.80;1.63;;;;;;;;;;5116125;28;20456;-56
2022/01/30 05:41:08;;;;;;;5.93;1.90;;;6.80;1.00;;;;;;5104763;28;20446;-56
2022/01/30 05:43:34;;;;;;;5.30;1.77;;;6.80;1.00;;;;;;5125690;28;20923;-56
2022/01/30 05:46:15;;;;;;;5.27;1.37;;;6.80;1.00;;;;;;5125478;28;20585;-57
2022/01/30 05:48:41;;;;;;;5.03;1.90;;;6.80;1.00;;;;;;5126133;28;20469;-56
2022/01/30 05:51:07;;;;;;;2.13;1.07;;;6.80;1.00;;;;;;5124747;28;20454;-56
2022/01/30 05:53:33;;;;;;;5.23;1.37;;;6.80;1.00;;;;;;5125927;28;21020;-56
2022/01/30 05:55:59;;;;;;;7.10;2.33;;;6.70;1.00;;;;;;5126569;27;20537;-56
2022/01/30 05:58:24;;;;;;;7.03;1.67;;;6.80;1.00;;;;;;5128024;28;20445;-56
2022/01/30 06:00:50;;;;;;;11.13;2.27;;;6.80;1.00;;;;;;5126455;28;20193;-56
2022/01/30 06:03:16;;;;;;;9.03;1.90;;;6.80;1.00;;;;;;5126035;28;20539;-56
2022/01/30 06:05:45;;;;;;;12.70;2.50;;;;;;;;;;5128159;28;20186;-57
2022/01/30 06:08:14;;;;;;;5.57;1.80;;;6.90;1.00;;;;;;5124424;28;20204;-56
2022/01/30 06:10:40;;;;;;;5.83;1.70;;;;;;;;;;5126072;27;20473;-56
2022/01/30 06:13:06;;;;;;;3.83;1.83;;;6.90;1.00;;;;;;5128184;27;20450;-56
2022/01/30 06:15:31;;;;;;;9.50;2.30;;;6.90;1.00;;;;;;5130578;27;20457;-57
2022/01/30 06:17:57;;;;;;;6.03;1.90;;;7.00;1.00;;;;;;5130500;27;20649;-56
2022/01/30 06:20:22;;;;;;;8.90;2.27;;;6.90;1.00;;;;;;5130835;27;20277;-56
2022/01/30 06:22:48;;;;;;;9.93;2.80;;;6.90;1.00;;;;;;5126382;27;20268;-56
2022/01/30 06:25:14;;;;;;;7.73;2.60;;;6.90;1.00;;;;;;5124235;27;20221;-56
2022/01/30 06:27:40;;;;;;;5.30;1.77;;;7.00;1.00;;;;;;5129281;27;20292;-56
2022/01/30 06:30:07;;;;;;;7.00;1.60;;;7.00;1.00;;;;;;5128210;27;20449;-56
2022/01/30 06:32:33;;;;;;;11.23;1.87;;;6.90;1.00;;;;;;5130373;27;20428;-56
2022/01/30 06:34:59;;;;;;;3.93;1.80;;;6.90;1.00;;;;;;5126583;27;20446;-56
2022/01/30 06:37:25;;;;;;;4.63;1.57;;;6.90;1.00;;;;;;5128471;27;20190;-56
2022/01/30 06:39:50;;;;;;;6.30;2.10;;;6.90;1.00;;;;;;5128889;27;20451;-56
2022/01/30 06:42:16;;;;;;;4.13;1.50;;;;;;;;;;5122650;27;20177;-56
2022/01/30 06:44:43;;;;;;;7.50;2.17;;;6.90;1.00;;;;;;5129225;27;20694;-56
2022/01/30 06:47:09;;;;;;;8.70;1.83;;;6.90;1.00;;;;;;5131042;27;20785;-56
2022/01/30 06:49:35;;;;;;;11.37;2.13;;;6.90;1.00;;;;;;5106622;27;20425;-56
2022/01/30 06:52:00;;;;;;;12.07;2.37;;;7.00;1.00;;;;;;5124756;27;20910;-57
2022/01/30 06:54:26;;;;;;;7.03;2.60;;;6.90;1.00;;;;;;5127879;27;20178;-56
2022/01/30 06:56:52;;;;;;;8.57;2.50;;;6.90;1.00;;;;;;5130698;27;20237;-55
2022/01/30 06:59:17;;;;;;;10.30;2.17;;;6.90;1.00;;;;;;5129933;27;20425;-56
2022/01/30 07:01:43;;;;;;;5.23;2.00;;;7.00;1.00;;;;;;5126028;27;20192;-56
2022/01/30 07:04:09;;;;;;;8.80;1.63;;;;;;;;;;5110834;27;20250;-57
2022/01/30 07:06:34;;;;;;;7.63;2.07;;;7.10;1.00;;;;;;5125830;27;20189;-56
2022/01/30 07:09:00;;;;;;;8.87;1.73;;;;;;;;;;5128633;27;20417;-56
2022/01/30 07:11:26;;;;;;;7.20;1.93;;;6.90;1.00;;;;;;5125196;27;20557;-56
2022/01/30 07:13:51;;;;;;;5.10;1.70;;;7.00;1.00;;;;;;5128980;27;21042;-56
2022/01/30 07:16:17;;;;;;;9.17;2.33;;;;;;;;;;5126190;27;20184;-56
2022/01/30 07:18:43;;;;;;;5.37;2.07;;;;;;;;;;5126099;27;21656;-55
2022/01/30 07:21:09;;;;;;;10.13;3.10;;;6.80;1.00;;;;;;5129035;27;20475;-56
2022/01/30 07:23:36;;;;;;;6.80;2.07;;;6.80;1.00;;;;;;5126298;27;20856;-56
2022/01/30 07:26:02;;;;;;;7.73;1.70;;;6.80;1.00;;;;;;5130092;27;20495;-56
2022/01/30 07:28:28;;;;;;;8.90;2.20;;;6.80;1.00;;;;;;5126355;27;20470;-56
2022/01/30 07:30:54;;;;;;;7.10;2.37;;;6.90;1.00;;;;;;5129007;27;20441;-56
2022/01/30 07:33:19;;;;;;;10.97;3.00;;;6.90;1.00;;;;;;5126487;27;20185;-56
2022/01/30 07:35:45;;;;;;;6.43;2.80;;;;;;;;;;5106682;27;20189;-56
2022/01/30 07:38:11;;;;;;;11.93;2.47;;;6.80;1.00;;;;;;5126294;27;20650;-56
2022/01/30 07:40:38;;;;;;;5.73;2.27;;;6.80;1.00;;;;;;5127022;27;20477;-56
2022/01/30 07:43:03;;;;;;;5.53;1.60;;;6.80;1.00;;;;;;5110228;27;20189;-56
2022/01/30 07:45:29;;;;;;;14.40;3.73;;;6.80;1.00;;;;;;5125525;27;20485;-56
2022/01/30 07:47:54;;;;;;;9.77;2.40;;;6.80;1.00;;;;;;5128086;27;20207;-56
2022/01/30 07:50:20;;;;;;;9.50;2.27;;;6.80;1.00;;;;;;5127169;27;20186;-55
2022/01/30 07:52:46;;;;;;;9.83;3.30;;;6.80;1.00;;;;;;5126251;27;20182;-56
2022/01/30 07:55:11;;;;;;;9.27;3.50;;;6.70;1.00;;;;;;5128849;27;20250;-55
2022/01/30 07:57:37;;;;;;;8.37;2.50;;;6.70;1.00;;;;;;5128179;27;20710;-56
2022/01/30 08:00:04;;;;;;;8.77;2.23;;;6.70;1.00;;;;;;5129571;27;20209;-56
2022/01/30 08:02:29;;;;;;;13.20;3.00;;;6.70;1.00;;;;;;5126246;27;20583;-56
2022/01/30 08:04:55;;;;;;;12.30;3.63;;;6.70;1.00;;;;;;5129820;27;20429;-55
2022/01/30 08:07:21;;;;;;;10.20;3.20;;;6.80;1.00;;;;;;5129445;27;20470;-55
2022/01/30 08:09:46;;;;;;;8.73;2.50;;;6.70;1.00;;;;;;5130560;27;20209;-57
2022/01/30 08:12:12;;;;;;;10.70;2.90;;;6.70;1.00;;;;;;5130845;27;20520;-56
2022/01/30 08:14:37;;;;;;;16.17;3.87;;;6.70;1.00;;;;;;5130750;27;20173;-56
2022/01/30 08:17:03;;;;;;;12.23;3.30;;;6.70;1.00;;;;;;5129225;27;20184;-56
2022/01/30 08:19:29;;;;;;;11.87;2.80;;;6.70;1.00;;;;;;5131449;27;20169;-56
2022/01/30 08:21:57;;;;;;;10.80;3.17;;;6.60;1.00;;;;;;5129937;27;20434;-55
2022/01/30 08:24:24;;;;;;;9.40;2.80;;;6.60;1.00;;;;;;5131033;27;20184;-56
2022/01/30 08:26:50;;;;;;;18.27;3.10;;;6.60;1.00;;;;;;5129214;27;20854;-56
2022/01/30 08:29:16;;;;;;;10.90;3.60;;;6.60;1.00;;;;;;5130228;27;20427;-56
2022/01/30 08:31:41;;;;;;;7.67;3.20;;;6.60;1.00;;;;;;5130256;27;20442;-56
2022/01/30 08:34:07;;;;;;;13.80;3.70;;;6.60;1.00;;;;;;5129914;27;20184;-56
2022/01/30 08:36:32;;;;;;;14.37;3.43;;;6.60;1.00;;;;;;5130405;27;20702;-56
2022/01/30 08:38:58;;;;;;;27.97;4.40;;;6.60;1.00;;;;;;5126553;27;20201;-56
2022/01/30 08:41:23;;;;;;;15.77;3.83;;;6.60;1.00;;;;;;5130358;27;20222;-56
2022/01/30 08:43:49;;;;;;;9.67;2.63;;;6.50;1.00;;;;;;5129674;27;20557;-56
2022/01/30 08:46:15;;;;;;;13.23;3.37;;;6.50;1.00;;;;;;5131145;27;20238;-56
2022/01/30 08:48:40;;;;;;;8.60;3.00;;;6.50;1.00;;;;;;5127499;27;20205;-56
2022/01/30 08:51:06;;;;;;;14.07;5.20;;;6.60;1.00;;;;;;5129876;27;20249;-56
2022/01/30 08:53:32;;;;;;;13.17;3.13;;;6.60;1.00;;;;;;5109956;27;20434;-56
2022/01/30 08:55:58;;;;;;;11.37;2.93;;;;;;;;;;5112345;27;20205;-56
2022/01/30 08:58:24;;;;;;;12.53;4.20;;;6.60;1.00;;;;;;5128668;27;20190;-57
2022/01/30 09:00:50;;;;;;;10.63;3.00;;;6.70;1.00;;;;;;5130703;27;20450;-56
2022/01/30 09:03:15;;;;;;;11.87;3.57;;;6.70;1.00;;;;;;5131366;27;20422;-57
2022/01/30 09:05:41;;;;;;;9.10;2.50;;;6.70;1.00;;;;;;5131137;27;20186;-56
2022/01/30 09:08:07;;;;;;;12.03;3.80;;;6.80;1.00;;;;;;5130289;27;20291;-56
2022/01/30 09:10:38;;;;;;;8.80;2.77;;;6.80;1.00;;;;;;5131154;27;20639;-56
2022/01/30 09:13:04;;;;;;;13.13;3.50;;;6.80;1.00;;;;;;5129523;27;20499;-55
2022/01/30 09:15:37;;;;;;;13.10;3.30;;;;;;;;;;5132562;27;20474;-56
2022/01/30 09:18:08;;;;;;;15.47;3.13;;;6.90;1.00;;;;;;5126151;27;20413;-56
2022/01/30 09:20:33;;;;;;;13.70;3.27;;;6.90;1.00;;;;;;5130805;27;20599;-56
2022/01/30 09:22:59;;;;;;;20.20;4.47;;;7.00;1.00;;;;;;5129747;27;20526;-56
2022/01/30 09:25:24;;;;;;;15.67;2.17;;;6.90;1.00;;;;;;5129422;27;20181;-61
2022/01/30 09:27:50;;;;;;;8.83;2.97;;;6.90;1.00;;;;;;5128437;27;20225;-61
2022/01/30 09:30:17;;;;;;;8.40;2.53;;;6.90;1.00;;;;;;5111951;27;20185;-62
2022/01/30 09:32:43;;;;;;;13.50;3.20;;;7.00;1.00;;;;;;5130995;27;20185;-63
2022/01/30 09:35:09;;;;;;;13.67;3.90;;;;;;;;;;5112736;27;20439;-63
2022/01/30 09:37:35;;;;;;;12.00;3.23;;;7.00;1.00;;;;;;5111926;28;20259;-62
2022/01/30 09:40:01;;;;;;;12.27;3.60;;;6.90;1.00;;;;;;5128520;27;20534;-63
2022/01/30 09:42:27;;;;;;;13.17;2.93;;;5.50;1.00;;;;;;5132558;27;20184;-64
2022/01/30 09:44:53;;;;;;;11.40;3.07;;;6.90;1.00;;;;;;5129576;27;20457;-62
2022/01/30 09:47:19;;;;;;;16.87;4.43;;;6.90;1.00;;;;;;5131445;27;20205;-62
2022/01/30 09:49:50;;;;;;;15.03;4.07;;;6.80;1.00;;;;;;5131658;27;20522;-63
2022/01/30 09:52:17;;;;;;;10.93;3.30;;;6.80;1.00;;;;;;5135771;27;20431;-62
2022/01/30 09:54:43;;;;;;;9.93;2.80;;;6.80;1.00;;;;;;5133141;27;20499;-62
2022/01/30 09:57:08;;;;;;;13.03;4.43;;;6.90;1.00;;;;;;5136089;27;20496;-63
2022/01/30 09:59:34;;;;;;;13.43;3.20;;;6.90;1.00;;;;;;5134060;27;20441;-63
2022/01/30 10:02:04;;;;;;;13.20;3.87;;;6.90;1.00;;;;;;5117954;27;20185;-64
2022/01/30 10:04:30;;;;;;;13.67;4.03;;;6.90;1.00;;;;;;5119208;27;20177;-63
2022/01/30 10:07:01;;;;;;;11.70;3.67;;;6.90;1.00;;;;;;5136165;27;20465;-61
2022/01/30 10:09:30;;;;;;;14.73;4.00;;;6.80;1.00;;;;;;5117503;27;20435;-64
2022/01/30 10:12:15;;;;;;;17.73;3.93;;;6.90;1.00;;;;;;5133112;27;20442;-63
2022/01/30 10:14:51;;;;;;;14.93;4.23;;;6.90;1.00;;;;;;5131569;27;20434;-61
2022/01/30 10:17:49;;;;;;;8.50;3.13;;;6.80;1.00;;;;;;5134657;27;20438;-62
2022/01/30 10:20:17;;;;;;;15.77;3.93;;;7.00;1.00;;;;;;5130214;27;20441;-61
2022/01/30 10:22:53;;;;;;;13.50;3.23;;;6.90;1.00;;;;;;5134427;27;20534;-62
2022/01/30 10:25:39;;;;;;;12.03;2.90;;;6.90;1.00;;;;;;5129401;27;20437;-62
2022/01/30 10:28:15;;;;;;;16.03;3.83;;;6.80;1.00;;;;;;5129844;27;20463;-63
2022/01/30 10:30:50;;;;;;;10.67;2.57;;;6.80;1.00;;;;;;5132054;27;20486;-64
2022/01/30 10:33:51;;;;;;;18.27;4.90;;;6.90;1.00;;;;;;5131674;27;20434;-63
2022/01/30 10:36:30;;;;;;;10.43;2.83;;;6.80;1.00;;;;;;5112860;27;20434;-63
2022/01/30 10:39:18;;;;;;;10.67;3.30;;;6.90;1.00;;;;;;5114735;27;20483;-62
2022/01/30 10:41:52;;;;;;;13.83;3.13;;;6.90;1.00;;;;;;5114938;27;20576;-62
2022/01/30 10:44:19;;;;;;;11.97;3.40;;;6.90;1.00;;;;;;5131976;27;20505;-62
2022/01/30 10:46:51;;;;;;;15.77;4.10;;;7.00;1.00;;;;;;5112758;27;20443;-63
2022/01/30 10:49:17;;;;;;;8.10;4.30;;;;;;;;;;5132441;27;20445;-63
2022/01/30 10:51:57;;;;;;;10.40;3.03;;;6.90;1.00;;;;;;5114187;27;20443;-62
2022/01/30 10:54:26;;;;;;;13.87;4.13;;;;;;;;;;5114697;27;20910;-61
2022/01/30 10:57:12;;;;;;;12.23;3.50;;;7.00;1.00;;;;;;5128078;27;20978;-63
2022/01/30 10:59:43;;;;;;;19.13;3.90;;;6.90;1.00;;;;;;5128921;27;20867;-63
2022/01/30 11:02:16;;;;;;;11.73;3.87;;;6.90;1.00;;;;;;5112962;27;20443;-62
2022/01/30 11:04:42;;;;;;;18.93;3.93;;;6.90;1.00;;;;;;5132570;27;20495;-59
2022/01/30 11:07:08;;;;;;;11.27;3.60;;;7.00;1.00;;;;;;5133042;27;20565;-61
2022/01/30 11:09:40;;;;;;;15.77;3.20;;;;;;;;;;5133296;27;20918;-62
2022/01/30 11:12:14;;;;;;;15.73;4.53;;;7.00;1.00;;;;;;5130523;27;20412;-62
2022/01/30 11:17:15;;;;;;;13.97;3.53;;;7.00;1.00;;;;;;5132940;27;20464;-61
2022/01/30 11:19:43;;;;;;;12.80;3.70;;;6.90;1.00;;;;;;5130629;27;20443;-62
2022/01/30 11:22:14;;;;;;;21.37;3.93;;;6.90;1.00;;;;;;5133597;27;22002;-62
2022/01/30 11:24:48;;;;;;;20.60;4.53;;;6.90;1.00;;;;;;5133108;27;20409;-62
2022/01/30 11:27:16;;;;;;;16.43;3.63;;;6.90;1.00;;;;;;5130171;27;20463;-63
2022/01/30 11:29:42;;;;;;;11.97;3.37;;;7.00;1.00;;;;;;5130905;27;20435;-60
2022/01/30 11:32:08;;;;;;;14.37;2.83;;;6.90;1.00;;;;;;5130077;27;20451;-62
2022/01/30 11:34:35;;;;;;;10.70;2.90;;;6.90;1.00;;;;;;5129345;27;20454;-62
2022/01/30 11:37:01;;;;;;;12.90;3.67;;;6.90;1.00;;;;;;5131219;27;20776;-62
2022/01/30 11:39:27;;;;;;;9.60;2.70;;;6.90;1.00;;;;;;5129646;27;20711;-58
2022/01/30 11:42:09;;;;;;;10.63;3.43;;;6.90;1.00;;;;;;5129360;27;20442;-62
2022/01/30 11:44:35;;;;;;;13.63;4.70;;;6.90;1.00;;;;;;5113948;27;20486;-62
2022/01/30 11:47:04;;;;;;;17.37;4.57;;;6.90;1.00;;;;;;5131913;27;20458;-62
2022/01/30 11:49:40;;;;;;;13.33;4.67;;;6.90;1.00;;;;;;5131824;27;20534;-62
2022/01/30 11:52:09;;;;;;;18.03;3.87;;;6.90;1.00;;;;;;5131794;27;20441;-62
2022/01/30 11:54:42;;;;;;;10.90;3.87;;;6.90;1.00;;;;;;5130865;27;20494;-62
2022/01/30 11:57:22;;;;;;;13.53;3.00;;;7.00;1.00;;;;;;5130136;27;20439;-63
2022/01/30 11:59:49;;;;;;;18.70;3.97;;;7.00;1.00;;;;;;5130447;27;20443;-62
2022/01/30 12:02:28;;;;;;;11.40;3.50;;;6.90;1.00;;;;;;5126918;27;20414;-62
2022/01/30 12:04:59;;;;;;;16.50;4.20;;;7.00;1.00;;;;;;5128893;27;20521;-62
2022/01/30 12:07:51;;;;;;;15.70;4.20;;;7.00;1.00;;;;;;5131949;27;20459;-62
2022/01/30 12:10:19;;;;;;;17.40;4.40;;;7.00;1.00;;;;;;5125389;27;21036;-61
2022/01/30 12:12:48;;;;;;;7.90;2.83;;;7.10;1.00;;;;;;5131721;27;20434;-62
2022/01/30 12:15:42;;;;;;;14.77;3.77;;;6.90;1.00;;;;;;5109540;27;20485;-62
2022/01/30 12:18:08;;;;;;;17.33;4.50;;;6.90;1.00;;;;;;5127065;27;20552;-62
2022/01/30 12:21:08;;;;;;;11.27;3.37;;;7.10;1.00;;;;;;5127414;27;20471;-62
2022/01/30 12:23:41;;;;;;;14.63;4.13;;;7.20;1.00;;;;;;5128662;27;20412;-62
2022/01/30 12:26:15;;;;;;;19.83;4.20;;;7.10;1.00;;;;;;5127608;27;20931;-62
2022/01/30 12:28:49;;;;;;;9.97;3.53;;;6.90;1.00;;;;;;5128608;27;20464;-62
2022/01/30 12:31:34;;;;;;;16.80;3.60;;;7.00;1.00;;;;;;5129345;27;20452;-62
2022/01/30 12:34:10;;;;;;;15.10;4.60;;;7.10;1.00;;;;;;5131660;27;20409;-62
2022/01/30 12:36:38;;;;;;;24.80;4.80;;;6.90;1.00;;;;;;5109784;27;20412;-62
2022/01/30 12:39:16;;;;;;;15.23;4.80;;;7.00;1.00;;;;;;5126157;27;20462;-62
2022/01/30 12:41:43;;;;;;;13.30;3.20;;;6.90;1.00;;;;;;5127649;27;20886;-62
2022/01/30 12:44:12;;;;;;;24.87;4.80;;;7.00;1.00;;;;;;5129487;27;20474;-62
2022/01/30 12:46:46;;;;;;;13.23;3.43;;;7.00;1.00;;;;;;5110037;27;20534;-62
2022/01/30 12:49:20;;;;;;;17.20;4.43;;;7.00;1.00;;;;;;5125787;27;20943;-62
2022/01/30 12:51:50;;;;;;;15.83;3.60;;;7.10;1.00;;;;;;5128015;27;20523;-62
2022/01/30 12:54:20;;;;;;;11.87;3.67;;;7.10;1.00;;;;;;5130885;27;20492;-61
2022/01/30 12:56:47;;;;;;;12.43;3.40;;;7.00;1.00;;;;;;5126549;27;20442;-62
2022/01/30 12:59:15;;;;;;;9.67;3.60;;;7.00;1.00;;;;;;5130223;27;20409;-61
2022/01/30 13:01:46;;;;;;;14.00;4.40;;;7.00;1.00;;;;;;5128993;27;20405;-62
2022/01/30 13:04:15;;;;;;;6.63;2.40;;;7.10;1.00;;;;;;5129610;27;20465;-62
2022/01/30 13:06:46;;;;;;;12.23;4.00;;;7.10;1.00;;;;;;5133452;27;20463;-62
2022/01/30 13:09:21;;;;;;;16.37;4.90;;;7.20;1.00;;;;;;5129389;27;20474;-62
2022/01/30 13:11:48;;;;;;;15.33;3.90;;;7.10;1.00;;;;;;5126460;27;20551;-62
2022/01/30 13:14:14;;;;;;;15.27;5.67;;;;;;;;;;5132738;27;20438;-62
2022/01/30 13:16:41;;;;;;;10.63;3.70;;;7.10;1.00;;;;;;5110019;27;20439;-62
2022/01/30 13:19:10;;;;;;;13.30;4.37;;;7.10;1.00;;;;;;5127456;27;20912;-62
2022/01/30 13:21:37;;;;;;;18.80;5.00;;;7.10;1.00;;;;;;5128680;27;20443;-62
2022/01/30 13:24:04;;;;;;;19.87;4.87;;;7.10;1.00;;;;;;5108321;27;20602;-61
2022/01/30 13:26:41;;;;;;;14.77;3.87;;;7.00;1.00;;;;;;5131619;27;20454;-62
2022/01/30 13:29:21;;;;;;;16.80;4.10;;;7.00;1.00;;;;;;5130201;28;20486;-62
2022/01/30 13:31:48;;;;;;;15.93;3.87;;;7.00;1.00;;;;;;5129713;28;20522;-62
2022/01/30 13:34:19;;;;;;;16.30;4.50;;;7.00;1.00;;;;;;5128098;28;20439;-62
2022/01/30 13:36:53;;;;;;;19.97;4.67;;;7.10;1.00;;;;;;5129797;27;20449;-62
2022/01/30 13:39:26;;;;;;;21.80;4.80;;;7.10;1.00;;;;;;5128615;27;20503;-62
2022/01/30 13:42:03;;;;;;;13.40;4.33;;;7.00;1.00;;;;;;5130065;28;20442;-62
2022/01/30 13:44:39;;;;;;;15.00;3.53;;;7.00;1.00;;;;;;5130469;27;20554;-62
2022/01/30 13:47:05;;;;;;;17.60;5.00;;;6.90;1.00;;;;;;5128274;28;20459;-62
2022/01/30 13:49:43;;;;;;;14.20;5.60;;;6.90;1.00;;;;;;5129143;28;20974;-61
2022/01/30 13:52:11;;;;;;;29.73;5.30;;;7.00;1.00;;;;;;5130724;28;20579;-62
2022/01/30 13:54:37;;;;;;;20.30;4.53;;;7.10;1.00;;;;;;5127963;28;20748;-62
2022/01/30 13:57:06;;;;;;;19.47;5.87;;;7.10;1.00;;;;;;5133423;27;20442;-61
2022/01/30 13:59:32;;;;;;;14.90;3.40;;;7.00;1.00;;;;;;5129981;28;20758;-63
2022/01/30 14:02:02;;;;;;;20.07;5.00;;;5.70;1.00;;;;;;5129881;27;20986;-61
2022/01/30 14:04:30;;;;;;;21.67;4.27;;;7.00;1.00;;;;;;5130405;28;20482;-61
2022/01/30 14:06:59;;;;;;;11.43;3.50;;;;;;;;;;5127684;28;20558;-62
2022/01/30 14:09:38;;;;;;;24.00;5.90;;;7.00;1.00;;;;;;5112490;28;20434;-61